sensor_id;sensor_type;location;lat;lon;timestamp;temperature;humidity
12926;DHT22;6529;50.566;9.774;2022-12-07T00:01:36;2.10;99.90
12926;DHT22;6529;50.566;9.774;2022-12-07T00:04:04;2.10;99.90
12926;DHT22;6529;50.566;9.774;2022-12-07T00:06:39;2.10;99.90
12926;DHT22;6529;50.566;9.774;2022-12-07T00:09:06;2.10;99.90
12926;DHT22;6529;50.566;9.774;2022-12-07T00:11:32;2.10;99.90
12926;DHT22;6529;50.566;9.774;2022-12-07T00:14:00;2.10;99.90
12926;DHT22;6529;50.566;9.774;2022-12-07T00:16:29;2.10;99.90
12926;DHT22;6529;50.566;9.774;2022-12-07T00:18:55;2.20;99.90
12926;DHT22;6529;50.566;9.774;2022-12-07T00:21:27;2.20;99.90
12926;DHT22;6529;50.566;9.774;2022-12-07T00:23:54;2.20;99.90
12926;DHT22;6529;50.566;9.774;2022-12-07T00:26:25;2.20;99.90
12926;DHT22;6529;50.566;9.774;2022-12-07T00:28:54;2.10;99.90
12926;DHT22;6529;50.566;9.774;2022-12-07T00:31:23;2.10;99.90
12926;DHT22;6529;50.566;9.774;2022-12-07T00:33:49;2.10;99.90
12926;DHT22;6529;50.566;9.774;2022-12-07T00:36:18;2.10;99.90
12926;DHT22;6529;50.566;9.774;2022-12-07T00:38:44;2.10;99.90
12926;DHT22;6529;50.566;9.774;2022-12-07T00:41:12;2.10;99.90
12926;DHT22;6529;50.566;9.774;2022-12-07T00:43:39;2.10;99.90
12926;DHT22;6529;50.566;9.774;2022-12-07T00:46:05;2.10;99.90
12926;DHT22;6529;50.566;9.774;2022-12-07T00:48:31;2.10;99.90
12926;DHT22;6529;50.566;9.774;2022-12-07T00:50:57;2.10;99.90
12926;DHT22;6529;50.566;9.774;2022-12-07T00:53:23;2.10;99.90
12926;DHT22;6529;50.566;9.774;2022-12-07T00:55:49;2.10;99.90
12926;DHT22;6529;50.566;9.774;2022-12-07T00:58:15;2.00;99.90
12926;DHT22;6529;50.566;9.774;2022-12-07T01:00:42;2.00;99.90
12926;DHT22;6529;50.566;9.774;2022-12-07T01:03:09;2.00;99.90
12926;DHT22;6529;50.566;9.774;2022-12-07T01:05:35;2.00;99.90
12926;DHT22;6529;50.566;9.774;2022-12-07T01:08:02;2.00;99.90
12926;DHT22;6529;50.566;9.774;2022-12-07T01:10:27;2.00;99.90
12926;DHT22;6529;50.566;9.774;2022-12-07T01:12:54;2.00;99.90
12926;DHT22;6529;50.566;9.774;2022-12-07T01:15:19;2.00;99.90
12926;DHT22;6529;50.566;9.774;2022-12-07T01:17:45;2.10;99.90
12926;DHT22;6529;50.566;9.774;2022-12-07T01:20:11;2.00;99.90
12926;DHT22;6529;50.566;9.774;2022-12-07T01:22:38;2.00;99.90
12926;DHT22;6529;50.566;9.774;2022-12-07T01:25:05;1.90;99.90
12926;DHT22;6529;50.566;9.774;2022-12-07T01:27:32;1.90;99.90
12926;DHT22;6529;50.566;9.774;2022-12-07T01:29:58;1.90;99.90
12926;DHT22;6529;50.566;9.774;2022-12-07T01:32:23;1.90;99.90
12926;DHT22;6529;50.566;9.774;2022-12-07T01:34:49;1.90;99.90
12926;DHT22;6529;50.566;9.774;2022-12-07T01:37:14;1.90;99.90
12926;DHT22;6529;50.566;9.774;2022-12-07T01:39:40;1.80;99.90
12926;DHT22;6529;50.566;9.774;2022-12-07T01:42:12;1.90;99.90
12926;DHT22;6529;50.566;9.774;2022-12-07T01:47:46;1.90;99.90
12926;DHT22;6529;50.566;9.774;2022-12-07T01:50:13;1.90;99.90
12926;DHT22;6529;50.566;9.774;2022-12-07T01:52:39;1.90;99.90
12926;DHT22;6529;50.566;9.774;2022-12-07T01:55:12;2.00;99.90
12926;DHT22;6529;50.566;9.774;2022-12-07T01:57:48;1.90;99.90
12926;DHT22;6529;50.566;9.774;2022-12-07T02:00:15;1.90;99.90
12926;DHT22;6529;50.566;9.774;2022-12-07T02:03:01;1.90;99.90
12926;DHT22;6529;50.566;9.774;2022-12-07T02:05:29;1.90;99.90
12926;DHT22;6529;50.566;9.774;2022-12-07T02:07:55;1.90;99.90
12926;DHT22;6529;50.566;9.774;2022-12-07T02:10:24;1.90;99.90
12926;DHT22;6529;50.566;9.774;2022-12-07T02:12:58;1.90;99.90
12926;DHT22;6529;50.566;9.774;2022-12-07T02:15:33;1.90;99.90
12926;DHT22;6529;50.566;9.774;2022-12-07T02:26:42;1.90;99.90
12926;DHT22;6529;50.566;9.774;2022-12-07T02:29:09;2.00;99.90
12926;DHT22;6529;50.566;9.774;2022-12-07T02:31:38;2.00;99.90
12926;DHT22;6529;50.566;9.774;2022-12-07T02:34:12;2.00;99.90
12926;DHT22;6529;50.566;9.774;2022-12-07T02:36:46;2.00;99.90
12926;DHT22;6529;50.566;9.774;2022-12-07T02:39:20;2.10;99.90
12926;DHT22;6529;50.566;9.774;2022-12-07T02:41:52;2.10;99.90
12926;DHT22;6529;50.566;9.774;2022-12-07T02:44:24;2.10;99.90
12926;DHT22;6529;50.566;9.774;2022-12-07T02:46:55;2.20;99.90
12926;DHT22;6529;50.566;9.774;2022-12-07T02:49:22;2.20;99.90
12926;DHT22;6529;50.566;9.774;2022-12-07T02:51:49;2.20;99.90
12926;DHT22;6529;50.566;9.774;2022-12-07T02:54:17;2.20;99.90
12926;DHT22;6529;50.566;9.774;2022-12-07T03:11:12;2.40;99.90
12926;DHT22;6529;50.566;9.774;2022-12-07T03:16:15;2.40;99.90
12926;DHT22;6529;50.566;9.774;2022-12-07T03:18:55;2.40;99.90
12926;DHT22;6529;50.566;9.774;2022-12-07T03:21:26;2.40;99.90
12926;DHT22;6529;50.566;9.774;2022-12-07T03:23:56;2.40;99.90
12926;DHT22;6529;50.566;9.774;2022-12-07T03:26:32;2.40;99.90
12926;DHT22;6529;50.566;9.774;2022-12-07T03:29:05;2.40;99.90
12926;DHT22;6529;50.566;9.774;2022-12-07T03:31:36;2.50;99.90
12926;DHT22;6529;50.566;9.774;2022-12-07T03:36:53;2.50;99.90
12926;DHT22;6529;50.566;9.774;2022-12-07T03:41:45;2.50;99.90
12926;DHT22;6529;50.566;9.774;2022-12-07T03:44:12;2.60;99.90
12926;DHT22;6529;50.566;9.774;2022-12-07T03:46:44;2.60;99.90
12926;DHT22;6529;50.566;9.774;2022-12-07T03:52:36;2.60;99.90
12926;DHT22;6529;50.566;9.774;2022-12-07T03:54:49;2.60;99.90
12926;DHT22;6529;50.566;9.774;2022-12-07T03:57:17;2.60;99.90
12926;DHT22;6529;50.566;9.774;2022-12-07T03:59:44;2.60;99.90
12926;DHT22;6529;50.566;9.774;2022-12-07T04:02:11;2.60;99.90
12926;DHT22;6529;50.566;9.774;2022-12-07T04:04:38;2.60;99.90
12926;DHT22;6529;50.566;9.774;2022-12-07T04:07:04;2.60;99.90
12926;DHT22;6529;50.566;9.774;2022-12-07T04:09:30;2.60;99.90
12926;DHT22;6529;50.566;9.774;2022-12-07T04:11:55;2.60;99.90
12926;DHT22;6529;50.566;9.774;2022-12-07T04:14:21;2.50;99.90
12926;DHT22;6529;50.566;9.774;2022-12-07T04:16:55;2.60;99.90
12926;DHT22;6529;50.566;9.774;2022-12-07T04:19:26;2.60;99.90
12926;DHT22;6529;50.566;9.774;2022-12-07T04:21:53;2.60;99.90
12926;DHT22;6529;50.566;9.774;2022-12-07T04:24:18;2.60;99.90
12926;DHT22;6529;50.566;9.774;2022-12-07T04:26:45;2.60;99.90
12926;DHT22;6529;50.566;9.774;2022-12-07T04:29:11;2.60;99.90
12926;DHT22;6529;50.566;9.774;2022-12-07T04:31:37;2.60;99.90
12926;DHT22;6529;50.566;9.774;2022-12-07T04:34:03;2.60;99.90
12926;DHT22;6529;50.566;9.774;2022-12-07T04:36:29;2.60;99.90
12926;DHT22;6529;50.566;9.774;2022-12-07T04:38:55;2.60;99.90
12926;DHT22;6529;50.566;9.774;2022-12-07T04:41:22;2.50;99.90
12926;DHT22;6529;50.566;9.774;2022-12-07T04:43:53;2.60;99.90
12926;DHT22;6529;50.566;9.774;2022-12-07T04:46:20;2.50;99.90
12926;DHT22;6529;50.566;9.774;2022-12-07T04:48:46;2.60;99.90
12926;DHT22;6529;50.566;9.774;2022-12-07T04:51:11;2.60;99.90
12926;DHT22;6529;50.566;9.774;2022-12-07T04:53:37;2.60;99.90
12926;DHT22;6529;50.566;9.774;2022-12-07T04:56:02;2.50;99.90
12926;DHT22;6529;50.566;9.774;2022-12-07T04:58:28;2.50;99.90
12926;DHT22;6529;50.566;9.774;2022-12-07T05:00:55;2.50;99.90
12926;DHT22;6529;50.566;9.774;2022-12-07T05:03:20;2.50;99.90
12926;DHT22;6529;50.566;9.774;2022-12-07T05:05:46;2.60;99.90
12926;DHT22;6529;50.566;9.774;2022-12-07T05:08:11;2.50;99.90
12926;DHT22;6529;50.566;9.774;2022-12-07T05:10:37;2.50;99.90
12926;DHT22;6529;50.566;9.774;2022-12-07T05:13:02;2.50;99.90
12926;DHT22;6529;50.566;9.774;2022-12-07T05:15:28;2.50;99.90
12926;DHT22;6529;50.566;9.774;2022-12-07T05:17:54;2.50;99.90
12926;DHT22;6529;50.566;9.774;2022-12-07T05:20:20;2.50;99.90
12926;DHT22;6529;50.566;9.774;2022-12-07T05:22:45;2.60;99.90
12926;DHT22;6529;50.566;9.774;2022-12-07T05:25:11;2.60;99.90
12926;DHT22;6529;50.566;9.774;2022-12-07T05:27:36;2.60;99.90
12926;DHT22;6529;50.566;9.774;2022-12-07T05:30:02;2.60;99.90
12926;DHT22;6529;50.566;9.774;2022-12-07T05:32:28;2.60;99.90
12926;DHT22;6529;50.566;9.774;2022-12-07T05:34:54;2.60;99.90
12926;DHT22;6529;50.566;9.774;2022-12-07T05:37:20;2.60;99.90
12926;DHT22;6529;50.566;9.774;2022-12-07T05:39:45;2.60;99.90
12926;DHT22;6529;50.566;9.774;2022-12-07T05:42:11;2.60;99.90
12926;DHT22;6529;50.566;9.774;2022-12-07T05:44:44;2.70;99.90
12926;DHT22;6529;50.566;9.774;2022-12-07T05:47:12;2.70;99.90
12926;DHT22;6529;50.566;9.774;2022-12-07T05:49:38;2.70;99.90
12926;DHT22;6529;50.566;9.774;2022-12-07T05:52:04;2.60;99.90
12926;DHT22;6529;50.566;9.774;2022-12-07T05:54:30;2.60;99.90
12926;DHT22;6529;50.566;9.774;2022-12-07T05:56:55;2.70;99.90
12926;DHT22;6529;50.566;9.774;2022-12-07T05:59:21;2.70;99.90
12926;DHT22;6529;50.566;9.774;2022-12-07T06:04:22;2.70;99.90
12926;DHT22;6529;50.566;9.774;2022-12-07T06:06:48;2.90;99.90
12926;DHT22;6529;50.566;9.774;2022-12-07T06:09:14;3.20;99.90
12926;DHT22;6529;50.566;9.774;2022-12-07T06:11:40;3.40;99.90
12926;DHT22;6529;50.566;9.774;2022-12-07T06:14:24;3.40;99.90
12926;DHT22;6529;50.566;9.774;2022-12-07T06:16:50;3.30;99.90
12926;DHT22;6529;50.566;9.774;2022-12-07T06:19:16;3.10;99.90
12926;DHT22;6529;50.566;9.774;2022-12-07T06:21:42;3.40;99.90
12926;DHT22;6529;50.566;9.774;2022-12-07T06:24:10;3.50;99.90
12926;DHT22;6529;50.566;9.774;2022-12-07T06:26:36;3.40;99.90
12926;DHT22;6529;50.566;9.774;2022-12-07T06:29:02;3.30;99.90
12926;DHT22;6529;50.566;9.774;2022-12-07T06:31:27;3.20;99.90
12926;DHT22;6529;50.566;9.774;2022-12-07T06:34:00;3.20;99.90
12926;DHT22;6529;50.566;9.774;2022-12-07T06:36:26;3.10;99.90
12926;DHT22;6529;50.566;9.774;2022-12-07T06:38:52;3.00;99.90
12926;DHT22;6529;50.566;9.774;2022-12-07T06:41:18;2.90;99.90
12926;DHT22;6529;50.566;9.774;2022-12-07T06:43:44;2.90;99.90
12926;DHT22;6529;50.566;9.774;2022-12-07T06:46:09;2.90;99.90
12926;DHT22;6529;50.566;9.774;2022-12-07T06:48:35;2.90;99.90
12926;DHT22;6529;50.566;9.774;2022-12-07T06:51:00;3.00;99.90
12926;DHT22;6529;50.566;9.774;2022-12-07T06:53:26;3.00;99.90
12926;DHT22;6529;50.566;9.774;2022-12-07T06:55:51;3.00;99.90
12926;DHT22;6529;50.566;9.774;2022-12-07T06:58:17;3.00;99.90
12926;DHT22;6529;50.566;9.774;2022-12-07T07:00:44;3.00;99.90
12926;DHT22;6529;50.566;9.774;2022-12-07T07:03:10;2.90;99.90
12926;DHT22;6529;50.566;9.774;2022-12-07T07:05:35;3.00;99.90
12926;DHT22;6529;50.566;9.774;2022-12-07T07:08:01;3.00;99.90
12926;DHT22;6529;50.566;9.774;2022-12-07T07:10:28;3.00;99.90
12926;DHT22;6529;50.566;9.774;2022-12-07T07:12:53;3.00;99.90
12926;DHT22;6529;50.566;9.774;2022-12-07T07:15:19;3.00;99.90
12926;DHT22;6529;50.566;9.774;2022-12-07T07:17:45;3.00;99.90
12926;DHT22;6529;50.566;9.774;2022-12-07T07:20:11;3.00;99.90
12926;DHT22;6529;50.566;9.774;2022-12-07T07:22:36;2.90;99.90
12926;DHT22;6529;50.566;9.774;2022-12-07T07:25:02;3.00;99.90
12926;DHT22;6529;50.566;9.774;2022-12-07T07:27:28;3.00;99.90
12926;DHT22;6529;50.566;9.774;2022-12-07T07:29:53;3.00;99.90
12926;DHT22;6529;50.566;9.774;2022-12-07T07:32:19;3.00;99.90
12926;DHT22;6529;50.566;9.774;2022-12-07T07:34:44;3.00;99.90
12926;DHT22;6529;50.566;9.774;2022-12-07T07:37:10;2.90;99.90
12926;DHT22;6529;50.566;9.774;2022-12-07T07:39:38;2.90;99.90
12926;DHT22;6529;50.566;9.774;2022-12-07T07:42:04;2.90;99.90
12926;DHT22;6529;50.566;9.774;2022-12-07T07:44:29;3.00;99.90
12926;DHT22;6529;50.566;9.774;2022-12-07T07:46:55;3.00;99.90
12926;DHT22;6529;50.566;9.774;2022-12-07T07:49:20;3.00;99.90
12926;DHT22;6529;50.566;9.774;2022-12-07T07:51:46;2.90;99.90
12926;DHT22;6529;50.566;9.774;2022-12-07T07:54:11;3.00;99.90
12926;DHT22;6529;50.566;9.774;2022-12-07T07:56:37;2.90;99.90
12926;DHT22;6529;50.566;9.774;2022-12-07T07:59:03;3.00;99.90
12926;DHT22;6529;50.566;9.774;2022-12-07T08:01:28;3.00;99.90
12926;DHT22;6529;50.566;9.774;2022-12-07T08:03:54;3.00;99.90
12926;DHT22;6529;50.566;9.774;2022-12-07T08:06:19;3.10;99.90
12926;DHT22;6529;50.566;9.774;2022-12-07T08:08:45;3.10;99.90
12926;DHT22;6529;50.566;9.774;2022-12-07T08:11:10;3.00;99.90
12926;DHT22;6529;50.566;9.774;2022-12-07T08:13:37;3.10;99.90
12926;DHT22;6529;50.566;9.774;2022-12-07T08:16:08;3.10;99.90
12926;DHT22;6529;50.566;9.774;2022-12-07T08:18:37;3.10;99.90
12926;DHT22;6529;50.566;9.774;2022-12-07T08:21:03;3.00;99.90
12926;DHT22;6529;50.566;9.774;2022-12-07T08:23:29;3.00;99.90
12926;DHT22;6529;50.566;9.774;2022-12-07T08:25:55;3.00;99.90
12926;DHT22;6529;50.566;9.774;2022-12-07T08:28:24;3.00;99.90
12926;DHT22;6529;50.566;9.774;2022-12-07T08:30:50;3.00;99.90
12926;DHT22;6529;50.566;9.774;2022-12-07T08:33:16;3.00;99.90
12926;DHT22;6529;50.566;9.774;2022-12-07T08:35:41;3.00;99.90
12926;DHT22;6529;50.566;9.774;2022-12-07T08:38:07;3.00;99.90
12926;DHT22;6529;50.566;9.774;2022-12-07T08:40:32;3.00;99.90
12926;DHT22;6529;50.566;9.774;2022-12-07T08:42:58;3.00;99.90
12926;DHT22;6529;50.566;9.774;2022-12-07T08:45:23;3.00;99.90
12926;DHT22;6529;50.566;9.774;2022-12-07T08:47:57;3.00;99.90
12926;DHT22;6529;50.566;9.774;2022-12-07T08:50:25;3.00;99.90
12926;DHT22;6529;50.566;9.774;2022-12-07T08:52:54;3.00;99.90
12926;DHT22;6529;50.566;9.774;2022-12-07T08:55:20;3.00;99.90
12926;DHT22;6529;50.566;9.774;2022-12-07T08:57:46;3.00;99.90
12926;DHT22;6529;50.566;9.774;2022-12-07T09:00:13;3.00;99.90
12926;DHT22;6529;50.566;9.774;2022-12-07T09:02:39;3.10;99.90
12926;DHT22;6529;50.566;9.774;2022-12-07T09:05:05;3.10;99.90
12926;DHT22;6529;50.566;9.774;2022-12-07T09:07:32;3.10;99.90
12926;DHT22;6529;50.566;9.774;2022-12-07T09:09:59;3.10;99.90
12926;DHT22;6529;50.566;9.774;2022-12-07T09:12:24;3.10;99.90
12926;DHT22;6529;50.566;9.774;2022-12-07T09:14:50;3.10;99.90
12926;DHT22;6529;50.566;9.774;2022-12-07T09:17:15;3.10;99.90
12926;DHT22;6529;50.566;9.774;2022-12-07T09:19:41;3.20;99.90
12926;DHT22;6529;50.566;9.774;2022-12-07T09:22:08;3.20;99.90
12926;DHT22;6529;50.566;9.774;2022-12-07T09:24:33;3.20;99.90
12926;DHT22;6529;50.566;9.774;2022-12-07T09:26:59;3.20;99.90
12926;DHT22;6529;50.566;9.774;2022-12-07T09:29:25;3.20;99.90
12926;DHT22;6529;50.566;9.774;2022-12-07T09:31:51;3.20;99.90
12926;DHT22;6529;50.566;9.774;2022-12-07T09:34:17;3.20;99.90
12926;DHT22;6529;50.566;9.774;2022-12-07T09:36:43;3.30;99.90
12926;DHT22;6529;50.566;9.774;2022-12-07T09:39:09;3.30;99.90
12926;DHT22;6529;50.566;9.774;2022-12-07T09:41:38;3.40;99.90
12926;DHT22;6529;50.566;9.774;2022-12-07T09:44:17;3.50;99.90
12926;DHT22;6529;50.566;9.774;2022-12-07T09:46:44;3.50;99.90
12926;DHT22;6529;50.566;9.774;2022-12-07T09:49:14;3.60;99.90
12926;DHT22;6529;50.566;9.774;2022-12-07T09:51:41;3.60;99.90
12926;DHT22;6529;50.566;9.774;2022-12-07T09:54:12;3.60;99.90
12926;DHT22;6529;50.566;9.774;2022-12-07T09:56:38;3.60;99.90
12926;DHT22;6529;50.566;9.774;2022-12-07T09:59:03;3.70;99.90
12926;DHT22;6529;50.566;9.774;2022-12-07T10:01:32;3.70;99.90
12926;DHT22;6529;50.566;9.774;2022-12-07T10:04:13;3.80;99.90
12926;DHT22;6529;50.566;9.774;2022-12-07T10:06:41;3.80;99.90
12926;DHT22;6529;50.566;9.774;2022-12-07T10:09:12;3.70;99.90
12926;DHT22;6529;50.566;9.774;2022-12-07T10:12:07;3.80;99.90
12926;DHT22;6529;50.566;9.774;2022-12-07T10:14:37;3.80;99.90
12926;DHT22;6529;50.566;9.774;2022-12-07T10:19:51;3.90;99.90
12926;DHT22;6529;50.566;9.774;2022-12-07T10:22:17;4.00;99.90
12926;DHT22;6529;50.566;9.774;2022-12-07T10:24:46;4.80;99.90
12926;DHT22;6529;50.566;9.774;2022-12-07T10:27:26;4.90;99.90
12926;DHT22;6529;50.566;9.774;2022-12-07T10:29:54;4.80;99.90
12926;DHT22;6529;50.566;9.774;2022-12-07T10:34:45;4.60;99.90
12926;DHT22;6529;50.566;9.774;2022-12-07T10:44:48;4.20;99.90
12926;DHT22;6529;50.566;9.774;2022-12-07T10:47:19;4.30;99.90
12926;DHT22;6529;50.566;9.774;2022-12-07T10:49:49;4.20;99.90
12926;DHT22;6529;50.566;9.774;2022-12-07T10:55:25;4.20;99.90
12926;DHT22;6529;50.566;9.774;2022-12-07T10:58:23;4.20;99.90
12926;DHT22;6529;50.566;9.774;2022-12-07T11:01:12;4.70;99.90
12926;DHT22;6529;50.566;9.774;2022-12-07T11:03:45;4.90;99.90
12926;DHT22;6529;50.566;9.774;2022-12-07T11:06:46;4.70;99.90
12926;DHT22;6529;50.566;9.774;2022-12-07T11:09:32;4.60;99.90
12926;DHT22;6529;50.566;9.774;2022-12-07T11:12:06;4.50;99.90
12926;DHT22;6529;50.566;9.774;2022-12-07T11:17:14;4.30;99.90
12926;DHT22;6529;50.566;9.774;2022-12-07T11:25:39;4.20;99.90
12926;DHT22;6529;50.566;9.774;2022-12-07T11:28:58;4.20;99.90
12926;DHT22;6529;50.566;9.774;2022-12-07T11:33:47;4.30;99.90
12926;DHT22;6529;50.566;9.774;2022-12-07T11:36:38;4.30;99.90
12926;DHT22;6529;50.566;9.774;2022-12-07T11:42:01;4.20;99.90
12926;DHT22;6529;50.566;9.774;2022-12-07T11:47:36;4.20;99.90
12926;DHT22;6529;50.566;9.774;2022-12-07T11:50:36;4.20;99.90
12926;DHT22;6529;50.566;9.774;2022-12-07T11:55:56;4.20;99.90
12926;DHT22;6529;50.566;9.774;2022-12-07T12:06:20;5.70;99.90
12926;DHT22;6529;50.566;9.774;2022-12-07T12:17:27;5.80;99.90
12926;DHT22;6529;50.566;9.774;2022-12-07T12:27:50;5.40;99.90
12926;DHT22;6529;50.566;9.774;2022-12-07T12:30:28;5.20;99.90
12926;DHT22;6529;50.566;9.774;2022-12-07T12:33:02;5.00;99.90
12926;DHT22;6529;50.566;9.774;2022-12-07T12:35:35;4.90;99.90
12926;DHT22;6529;50.566;9.774;2022-12-07T12:38:25;4.70;99.90
12926;DHT22;6529;50.566;9.774;2022-12-07T12:40:51;4.50;99.90
12926;DHT22;6529;50.566;9.774;2022-12-07T12:43:39;4.50;99.90
12926;DHT22;6529;50.566;9.774;2022-12-07T12:46:51;4.40;99.90
12926;DHT22;6529;50.566;9.774;2022-12-07T12:59:32;4.30;99.90
12926;DHT22;6529;50.566;9.774;2022-12-07T13:20:58;4.80;99.90
12926;DHT22;6529;50.566;9.774;2022-12-07T13:26:23;5.00;99.90
12926;DHT22;6529;50.566;9.774;2022-12-07T13:28:52;5.00;99.90
12926;DHT22;6529;50.566;9.774;2022-12-07T13:34:05;4.80;99.90
12926;DHT22;6529;50.566;9.774;2022-12-07T13:36:38;4.80;99.90
12926;DHT22;6529;50.566;9.774;2022-12-07T13:39:20;4.80;99.90
12926;DHT22;6529;50.566;9.774;2022-12-07T13:42:12;4.80;99.90
12926;DHT22;6529;50.566;9.774;2022-12-07T13:44:40;4.70;99.90
12926;DHT22;6529;50.566;9.774;2022-12-07T13:47:31;4.70;99.90
12926;DHT22;6529;50.566;9.774;2022-12-07T13:49:58;4.70;99.90
12926;DHT22;6529;50.566;9.774;2022-12-07T13:52:29;4.70;99.90
12926;DHT22;6529;50.566;9.774;2022-12-07T13:54:59;4.70;99.90
12926;DHT22;6529;50.566;9.774;2022-12-07T13:57:27;4.70;99.90
12926;DHT22;6529;50.566;9.774;2022-12-07T13:59:53;4.70;99.90
12926;DHT22;6529;50.566;9.774;2022-12-07T14:04:50;4.60;99.90
12926;DHT22;6529;50.566;9.774;2022-12-07T14:07:21;4.60;99.90
12926;DHT22;6529;50.566;9.774;2022-12-07T14:10:01;4.50;99.90
12926;DHT22;6529;50.566;9.774;2022-12-07T14:12:28;4.50;99.90
12926;DHT22;6529;50.566;9.774;2022-12-07T14:14:55;4.50;99.90
12926;DHT22;6529;50.566;9.774;2022-12-07T14:17:23;4.50;99.90
12926;DHT22;6529;50.566;9.774;2022-12-07T14:20:02;4.50;99.90
12926;DHT22;6529;50.566;9.774;2022-12-07T14:27:32;4.40;99.90
12926;DHT22;6529;50.566;9.774;2022-12-07T14:30:03;4.40;99.90
12926;DHT22;6529;50.566;9.774;2022-12-07T14:32:30;4.40;99.90
12926;DHT22;6529;50.566;9.774;2022-12-07T14:35:00;4.30;99.90
12926;DHT22;6529;50.566;9.774;2022-12-07T14:37:28;4.30;99.90
12926;DHT22;6529;50.566;9.774;2022-12-07T14:39:54;4.30;99.90
12926;DHT22;6529;50.566;9.774;2022-12-07T14:42:20;4.30;99.90
12926;DHT22;6529;50.566;9.774;2022-12-07T14:44:47;4.20;99.90
12926;DHT22;6529;50.566;9.774;2022-12-07T14:47:13;4.30;99.90
12926;DHT22;6529;50.566;9.774;2022-12-07T14:49:38;4.20;99.90
12926;DHT22;6529;50.566;9.774;2022-12-07T14:52:05;4.20;99.90
12926;DHT22;6529;50.566;9.774;2022-12-07T14:54:32;4.10;99.90
12926;DHT22;6529;50.566;9.774;2022-12-07T14:56:58;4.00;99.90
12926;DHT22;6529;50.566;9.774;2022-12-07T14:59:23;4.00;99.90
12926;DHT22;6529;50.566;9.774;2022-12-07T15:01:49;3.80;99.90
12926;DHT22;6529;50.566;9.774;2022-12-07T15:04:15;3.70;99.90
12926;DHT22;6529;50.566;9.774;2022-12-07T15:06:40;3.60;99.90
12926;DHT22;6529;50.566;9.774;2022-12-07T15:09:10;3.60;99.90
12926;DHT22;6529;50.566;9.774;2022-12-07T15:11:36;3.60;99.90
12926;DHT22;6529;50.566;9.774;2022-12-07T15:14:01;3.60;99.90
12926;DHT22;6529;50.566;9.774;2022-12-07T15:16:34;3.50;99.90
12926;DHT22;6529;50.566;9.774;2022-12-07T15:19:00;3.50;99.90
12926;DHT22;6529;50.566;9.774;2022-12-07T15:21:25;3.50;99.90
12926;DHT22;6529;50.566;9.774;2022-12-07T15:23:51;3.50;99.90
12926;DHT22;6529;50.566;9.774;2022-12-07T15:26:17;3.50;99.90
12926;DHT22;6529;50.566;9.774;2022-12-07T15:28:42;3.50;99.90
12926;DHT22;6529;50.566;9.774;2022-12-07T15:31:15;3.50;99.90
12926;DHT22;6529;50.566;9.774;2022-12-07T15:33:41;3.50;99.90
12926;DHT22;6529;50.566;9.774;2022-12-07T15:36:07;3.50;99.90
12926;DHT22;6529;50.566;9.774;2022-12-07T15:38:33;3.50;99.90
12926;DHT22;6529;50.566;9.774;2022-12-07T15:40:58;3.40;99.90
12926;DHT22;6529;50.566;9.774;2022-12-07T15:43:24;3.40;99.90
12926;DHT22;6529;50.566;9.774;2022-12-07T15:46:08;3.30;99.90
12926;DHT22;6529;50.566;9.774;2022-12-07T15:48:34;3.40;99.90
12926;DHT22;6529;50.566;9.774;2022-12-07T15:51:08;3.30;99.90
12926;DHT22;6529;50.566;9.774;2022-12-07T15:53:34;3.30;99.90
12926;DHT22;6529;50.566;9.774;2022-12-07T15:56:00;3.30;99.90
12926;DHT22;6529;50.566;9.774;2022-12-07T15:58:26;3.30;99.90
12926;DHT22;6529;50.566;9.774;2022-12-07T16:00:51;3.30;99.90
12926;DHT22;6529;50.566;9.774;2022-12-07T16:03:17;3.30;99.90
12926;DHT22;6529;50.566;9.774;2022-12-07T16:05:49;3.30;99.90
12926;DHT22;6529;50.566;9.774;2022-12-07T16:08:14;3.30;99.90
12926;DHT22;6529;50.566;9.774;2022-12-07T16:10:40;3.30;99.90
12926;DHT22;6529;50.566;9.774;2022-12-07T16:13:11;3.30;99.90
12926;DHT22;6529;50.566;9.774;2022-12-07T16:15:39;3.30;99.90
12926;DHT22;6529;50.566;9.774;2022-12-07T16:18:05;3.40;99.90
12926;DHT22;6529;50.566;9.774;2022-12-07T16:20:30;3.40;99.90
12926;DHT22;6529;50.566;9.774;2022-12-07T16:22:56;3.40;99.90
12926;DHT22;6529;50.566;9.774;2022-12-07T16:25:21;3.40;99.90
12926;DHT22;6529;50.566;9.774;2022-12-07T16:27:47;3.40;99.90
12926;DHT22;6529;50.566;9.774;2022-12-07T16:30:14;3.50;99.90
12926;DHT22;6529;50.566;9.774;2022-12-07T16:32:41;3.50;99.90
12926;DHT22;6529;50.566;9.774;2022-12-07T16:35:07;3.50;99.90
12926;DHT22;6529;50.566;9.774;2022-12-07T16:37:33;3.50;99.90
12926;DHT22;6529;50.566;9.774;2022-12-07T16:39:58;3.50;99.90
12926;DHT22;6529;50.566;9.774;2022-12-07T16:42:24;3.40;99.90
12926;DHT22;6529;50.566;9.774;2022-12-07T16:44:50;3.40;99.90
12926;DHT22;6529;50.566;9.774;2022-12-07T16:47:15;3.30;99.90
12926;DHT22;6529;50.566;9.774;2022-12-07T16:49:42;3.30;99.90
12926;DHT22;6529;50.566;9.774;2022-12-07T16:52:08;3.20;99.90
12926;DHT22;6529;50.566;9.774;2022-12-07T16:54:33;3.20;99.90
12926;DHT22;6529;50.566;9.774;2022-12-07T16:56:59;3.20;99.90
12926;DHT22;6529;50.566;9.774;2022-12-07T16:59:25;3.10;99.90
12926;DHT22;6529;50.566;9.774;2022-12-07T17:01:50;3.20;99.90
12926;DHT22;6529;50.566;9.774;2022-12-07T17:04:17;3.20;99.90
12926;DHT22;6529;50.566;9.774;2022-12-07T17:06:42;3.20;99.90
12926;DHT22;6529;50.566;9.774;2022-12-07T17:09:08;3.10;99.90
12926;DHT22;6529;50.566;9.774;2022-12-07T17:11:35;3.10;99.90
12926;DHT22;6529;50.566;9.774;2022-12-07T17:14:01;3.10;99.90
12926;DHT22;6529;50.566;9.774;2022-12-07T17:16:45;3.10;99.90
12926;DHT22;6529;50.566;9.774;2022-12-07T17:19:13;3.00;99.90
12926;DHT22;6529;50.566;9.774;2022-12-07T17:21:40;3.10;99.90
12926;DHT22;6529;50.566;9.774;2022-12-07T17:24:08;3.10;99.90
12926;DHT22;6529;50.566;9.774;2022-12-07T17:26:34;3.00;99.90
12926;DHT22;6529;50.566;9.774;2022-12-07T17:29:00;3.00;99.90
12926;DHT22;6529;50.566;9.774;2022-12-07T17:31:26;3.00;99.90
12926;DHT22;6529;50.566;9.774;2022-12-07T17:33:52;3.00;99.90
12926;DHT22;6529;50.566;9.774;2022-12-07T17:36:23;3.00;99.90
12926;DHT22;6529;50.566;9.774;2022-12-07T17:38:50;3.00;99.90
12926;DHT22;6529;50.566;9.774;2022-12-07T17:41:27;3.00;99.90
12926;DHT22;6529;50.566;9.774;2022-12-07T17:44:14;3.00;99.90
12926;DHT22;6529;50.566;9.774;2022-12-07T17:46:40;3.00;99.90
12926;DHT22;6529;50.566;9.774;2022-12-07T17:49:07;3.00;99.90
12926;DHT22;6529;50.566;9.774;2022-12-07T17:51:32;3.00;99.90
12926;DHT22;6529;50.566;9.774;2022-12-07T17:54:17;3.00;99.90
12926;DHT22;6529;50.566;9.774;2022-12-07T17:56:43;3.00;99.90
12926;DHT22;6529;50.566;9.774;2022-12-07T17:59:09;3.00;99.90
12926;DHT22;6529;50.566;9.774;2022-12-07T18:01:35;2.90;99.90
12926;DHT22;6529;50.566;9.774;2022-12-07T18:04:01;2.90;99.90
12926;DHT22;6529;50.566;9.774;2022-12-07T18:06:27;2.90;99.90
12926;DHT22;6529;50.566;9.774;2022-12-07T18:08:52;2.90;99.90
12926;DHT22;6529;50.566;9.774;2022-12-07T18:11:18;2.90;99.90
12926;DHT22;6529;50.566;9.774;2022-12-07T18:13:44;2.80;99.90
12926;DHT22;6529;50.566;9.774;2022-12-07T18:16:16;2.80;99.90
12926;DHT22;6529;50.566;9.774;2022-12-07T18:18:43;2.80;99.90
12926;DHT22;6529;50.566;9.774;2022-12-07T18:21:11;2.80;99.90
12926;DHT22;6529;50.566;9.774;2022-12-07T18:23:47;2.80;99.90
12926;DHT22;6529;50.566;9.774;2022-12-07T18:26:14;2.80;99.90
12926;DHT22;6529;50.566;9.774;2022-12-07T18:28:41;2.90;99.90
12926;DHT22;6529;50.566;9.774;2022-12-07T18:31:07;2.90;99.90
12926;DHT22;6529;50.566;9.774;2022-12-07T18:33:32;2.90;99.90